Time;durP1;ratioP1;P1;durP2;ratioP2;P2;SDS_P1;SDS_P2;PMS_P1;PMS_P2;Temp;Humidity;BMP_temperature;BMP_pressure;BME280_temperature;BME280_humidity;BME280_pressure;Samples;Min_cycle;Max_cycle;Signal;HPM_P1;HPM_P2
2022/03/13 00:00:49;;;;;;;;;;;;;;;30.24;14.68;101907.75;5006169;28;930;-36
2022/03/13 00:03:15;;;;;;;;;;;;;;;30.66;14.61;101905.66;4998583;28;818;-34
2022/03/13 00:05:41;;;;;;;;;;;;;;;30.40;14.97;101900.53;4998833;28;1965;-34
2022/03/13 00:08:16;;;;;;;;;;;;;;;30.02;15.21;101899.31;4998561;28;920;-33
2022/03/13 00:10:43;;;;;;;;;;;;;;;30.21;14.97;101893.69;4998479;28;1314;-32
2022/03/13 00:13:15;;;;;;;;;;;;;;;30.26;15.10;101897.53;5008390;28;902;-32
2022/03/13 00:15:41;;;;;;;;;;;;;;;30.05;15.23;101895.41;5000472;28;841;-36
2022/03/13 00:18:08;;;;;;;;;;;;;;;29.93;15.27;101894.94;5004883;28;770;-33
2022/03/13 00:20:34;;;;;;;;;;;;;;;29.38;15.31;101789.00;4998087;28;783;-33
2022/03/13 00:22:59;;;;;;;;;;;;;;;30.00;15.17;101885.06;4998900;28;877;-33
2022/03/13 00:25:26;;;;;;;;;;;;;;;30.36;15.05;101877.50;5007640;28;1886;-35
2022/03/13 00:27:51;;;;;;;;;;;;;;;30.36;14.92;101877.50;5000989;28;850;-38
2022/03/13 00:30:17;;;;;;;;;;;;;;;30.50;14.89;101874.00;4998505;28;834;-37
2022/03/13 00:32:42;;;;;;;;;;;;;;;30.54;14.57;101875.38;5007444;28;867;-34
2022/03/13 00:35:07;;;;;;;;;;;;;;;30.36;14.59;101872.94;4997999;28;1357;-36
2022/03/13 00:37:33;;;;;;;;;;;;;;;30.06;14.99;101868.09;5000556;28;793;-33
2022/03/13 00:40:00;;;;;;;;;;;;;;;29.82;15.23;101863.63;5001929;28;960;-36
2022/03/13 00:42:25;;;;;;;;;;;;;;;30.18;14.92;101864.97;4997796;28;829;-34
2022/03/13 00:44:51;;;;;;;;;;;;;;;29.91;15.11;101867.16;4998473;28;1906;-35
2022/03/13 00:47:20;;;;;;;;;;;;;;;29.97;14.89;101862.88;5011728;28;1626;-34
2022/03/13 00:49:46;;;;;;;;;;;;;;;30.08;14.89;101864.38;4998057;28;925;-36
2022/03/13 00:52:11;;;;;;;;;;;;;;;30.17;14.84;101866.03;5004545;28;813;-39
2022/03/13 00:54:36;;;;;;;;;;;;;;;30.55;14.52;101860.75;4997642;28;770;-33
2022/03/13 00:57:02;;;;;;;;;;;;;;;30.28;14.71;101862.94;4998145;28;825;-36
2022/03/13 00:59:27;;;;;;;;;;;;;;;30.39;14.62;101864.41;4997854;28;1415;-35
2022/03/13 01:01:52;;;;;;;;;;;;;;;30.38;14.66;101862.72;5006281;28;759;-34
2022/03/13 01:04:18;;;;;;;;;;;;;;;30.88;14.28;101858.88;5006779;28;888;-38
2022/03/13 01:06:43;;;;;;;;;;;;;;;30.61;14.46;101866.50;4997424;28;1898;-33
2022/03/13 01:09:09;;;;;;;;;;;;;;;30.42;14.64;101871.34;4998026;28;810;-33
2022/03/13 01:11:34;;;;;;;;;;;;;;;30.69;14.27;101866.44;4997937;28;807;-34
2022/03/13 01:13:59;;;;;;;;;;;;;;;30.12;15.08;101868.41;4997272;28;818;-36
2022/03/13 01:16:25;;;;;;;;;;;;;;;30.47;14.59;101871.66;5001430;28;798;-37
2022/03/13 01:18:51;;;;;;;;;;;;;;;30.05;15.17;101866.41;4998917;28;929;-35
2022/03/13 01:21:17;;;;;;;;;;;;;;;30.23;14.92;101867.22;4997188;28;829;-33
2022/03/13 01:23:53;;;;;;;;;;;;;;;30.13;15.01;101864.69;4997161;28;806;-31
2022/03/13 01:26:22;;;;;;;;;;;;;;;30.38;14.90;101854.56;4997083;28;1902;-32
2022/03/13 01:28:57;;;;;;;;;;;;;;;30.53;14.66;101862.78;5004859;28;814;-36
2022/03/13 01:31:33;;;;;;;;;;;;;;;30.66;14.60;101862.19;5011194;28;876;-31
2022/03/13 01:33:58;;;;;;;;;;;;;;;30.67;14.66;101860.31;5002148;28;1117;-33
2022/03/13 01:36:23;;;;;;;;;;;;;;;30.93;14.61;101850.97;4996411;28;866;-32
2022/03/13 01:38:52;;;;;;;;;;;;;;;30.75;14.63;101841.25;4997940;28;798;-32
2022/03/13 01:41:17;;;;;;;;;;;;;;;30.35;14.76;101838.63;5002627;28;838;-32
2022/03/13 01:43:43;;;;;;;;;;;;;;;30.73;14.64;101834.34;5003181;28;814;-32
2022/03/13 01:46:08;;;;;;;;;;;;;;;30.02;15.47;101838.78;5008349;28;1961;-36
2022/03/13 01:48:52;;;;;;;;;;;;;;;29.93;15.39;101837.97;5003720;28;806;-37
2022/03/13 01:51:17;;;;;;;;;;;;;;;30.01;15.32;101832.50;4996298;28;769;-34
2022/03/13 01:53:43;;;;;;;;;;;;;;;29.75;15.48;101833.63;5000472;28;726;-35
2022/03/13 01:56:08;;;;;;;;;;;;;;;30.00;15.19;101833.53;5002510;28;821;-34
2022/03/13 01:58:33;;;;;;;;;;;;;;;30.18;15.21;101838.69;4996939;28;834;-31
2022/03/13 02:00:58;;;;;;;;;;;;;;;30.59;14.79;101841.38;4999231;28;833;-37
2022/03/13 02:03:24;;;;;;;;;;;;;;;30.34;14.99;101836.09;5002590;28;798;-35
2022/03/13 02:05:50;;;;;;;;;;;;;;;30.13;14.89;101832.13;4997422;28;1906;-37
2022/03/13 02:08:18;;;;;;;;;;;;;;;30.63;14.90;101831.84;5002779;28;793;-35
2022/03/13 02:10:44;;;;;;;;;;;;;;;30.71;14.65;101839.09;4997345;28;798;-33
2022/03/13 02:13:11;;;;;;;;;;;;;;;30.55;14.56;101841.75;4996746;28;901;-34
2022/03/13 02:15:36;;;;;;;;;;;;;;;30.14;14.96;101840.09;5003920;28;1217;-35
2022/03/13 02:18:02;;;;;;;;;;;;;;;29.75;15.39;101841.78;5004041;28;873;-35
2022/03/13 02:20:27;;;;;;;;;;;;;;;29.62;15.28;101839.59;5002813;28;817;-35
2022/03/13 02:22:53;;;;;;;;;;;;;;;29.56;15.54;101837.56;4997396;28;805;-35
2022/03/13 02:25:19;;;;;;;;;;;;;;;29.67;15.36;101836.38;4996791;28;1894;-36
2022/03/13 02:27:44;;;;;;;;;;;;;;;29.34;15.85;101835.38;4995272;28;1094;-36
2022/03/13 02:30:10;;;;;;;;;;;;;;;29.07;15.96;101828.50;4996701;28;806;-32
2022/03/13 02:32:35;;;;;;;;;;;;;;;28.99;16.00;101826.63;5014103;28;777;-31
2022/03/13 02:35:00;;;;;;;;;;;;;;;28.94;16.09;101828.97;4999364;28;1197;-34
2022/03/13 02:37:34;;;;;;;;;;;;;;;28.75;16.20;101827.44;4996868;28;908;-36
2022/03/13 02:40:00;;;;;;;;;;;;;;;29.41;16.08;101824.69;4996813;28;798;-36
2022/03/13 02:42:25;;;;;;;;;;;;;;;30.06;15.41;101823.84;5000733;28;881;-34
2022/03/13 02:44:50;;;;;;;;;;;;;;;29.89;15.69;101828.50;5012062;28;1910;-34
2022/03/13 02:47:15;;;;;;;;;;;;;;;29.95;15.56;101822.34;5007888;28;865;-35
2022/03/13 02:49:41;;;;;;;;;;;;;;;30.01;15.42;101820.81;4999736;28;862;-31
2022/03/13 02:52:06;;;;;;;;;;;;;;;29.96;15.73;101829.50;5000117;28;872;-32
2022/03/13 02:54:31;;;;;;;;;;;;;;;29.87;15.63;101831.38;5000768;28;837;-37
2022/03/13 02:56:57;;;;;;;;;;;;;;;29.93;15.61;101827.09;5000097;28;805;-37
2022/03/13 02:59:22;;;;;;;;;;;;;;;30.26;15.33;101831.59;5007124;28;992;-36
2022/03/13 03:01:48;;;;;;;;;;;;;;;30.35;15.31;101816.91;5006335;28;829;-34
2022/03/13 03:04:13;;;;;;;;;;;;;;;30.47;15.06;101821.94;4998584;28;923;-34
2022/03/13 03:06:39;;;;;;;;;;;;;;;30.76;14.80;101818.50;5000037;28;1947;-38
2022/03/13 03:09:04;;;;;;;;;;;;;;;30.40;15.25;101819.09;4999925;28;833;-35
2022/03/13 03:11:32;;;;;;;;;;;;;;;30.58;15.00;101817.97;5007402;28;900;-33
2022/03/13 03:13:58;;;;;;;;;;;;;;;30.49;15.14;101819.91;5012705;28;812;-37
2022/03/13 03:16:24;;;;;;;;;;;;;;;30.48;15.12;101820.94;5010256;28;831;-32
2022/03/13 03:18:49;;;;;;;;;;;;;;;30.28;15.08;101816.78;5000131;28;869;-34
2022/03/13 03:21:15;;;;;;;;;;;;;;;30.54;15.36;101825.63;4999519;28;861;-34
2022/03/13 03:23:40;;;;;;;;;;;;;;;30.01;15.65;101821.66;5009414;28;805;-35
2022/03/13 03:26:06;;;;;;;;;;;;;;;30.17;15.50;101830.75;5000492;28;1895;-33
2022/03/13 03:28:34;;;;;;;;;;;;;;;29.95;15.94;101819.66;4999250;28;892;-33
2022/03/13 03:31:00;;;;;;;;;;;;;;;29.90;15.83;101833.75;5005010;28;825;-35
2022/03/13 03:33:25;;;;;;;;;;;;;;;29.88;15.82;101838.50;5007432;28;1157;-37
2022/03/13 03:35:50;;;;;;;;;;;;;;;29.90;15.93;101828.31;5004617;28;761;-34
2022/03/13 03:38:16;;;;;;;;;;;;;;;30.09;15.79;101822.63;5001698;28;826;-35
2022/03/13 03:40:41;;;;;;;;;;;;;;;30.02;15.89;101833.34;4999046;28;929;-31
2022/03/13 03:43:07;;;;;;;;;;;;;;;30.38;15.39;101827.41;4999383;28;801;-35
2022/03/13 03:45:32;;;;;;;;;;;;;;;30.67;15.00;101825.88;4999338;28;2232;-34
2022/03/13 03:47:58;;;;;;;;;;;;;;;30.74;15.20;101834.16;5011393;28;765;-33
2022/03/13 03:50:23;;;;;;;;;;;;;;;30.39;15.24;101828.28;5009171;28;774;-35
2022/03/13 03:52:50;;;;;;;;;;;;;;;30.51;15.29;101831.44;4998843;28;898;-34
2022/03/13 03:55:16;;;;;;;;;;;;;;;30.22;15.35;101835.66;4999130;28;997;-34
2022/03/13 03:57:41;;;;;;;;;;;;;;;30.72;15.38;101838.91;4999488;28;786;-34
2022/03/13 04:00:06;;;;;;;;;;;;;;;30.89;15.16;101834.22;4997862;28;908;-34
2022/03/13 04:02:32;;;;;;;;;;;;;;;30.84;15.21;101838.50;5005095;28;968;-34
2022/03/13 04:04:57;;;;;;;;;;;;;;;30.88;15.14;101842.56;4998583;28;1894;-35
2022/03/13 04:07:23;;;;;;;;;;;;;;;30.50;15.42;101841.44;4999366;28;751;-33
2022/03/13 04:09:48;;;;;;;;;;;;;;;30.58;15.37;101834.25;4998654;28;893;-36
2022/03/13 04:12:13;;;;;;;;;;;;;;;30.22;15.78;101839.22;4999019;28;742;-34
2022/03/13 04:14:39;;;;;;;;;;;;;;;30.34;15.69;101839.69;5004826;28;739;-35
2022/03/13 04:17:07;;;;;;;;;;;;;;;30.34;15.48;101836.97;5006310;28;864;-39
2022/03/13 04:19:32;;;;;;;;;;;;;;;30.37;15.39;101835.75;5004513;28;838;-34
2022/03/13 04:21:58;;;;;;;;;;;;;;;30.36;14.59;101837.63;4997915;28;921;-31
2022/03/13 04:24:23;;;;;;;;;;;;;;;29.74;14.34;101841.94;4998139;28;897;-34
2022/03/13 04:26:49;;;;;;;;;;;;;;;29.32;14.68;101833.88;5002990;28;1909;-34
2022/03/13 04:29:14;;;;;;;;;;;;;;;28.93;14.80;101838.94;4999397;28;1443;-33
2022/03/13 04:31:40;;;;;;;;;;;;;;;28.69;14.80;101837.09;5004563;28;794;-30
2022/03/13 04:34:05;;;;;;;;;;;;;;;28.55;14.02;101833.16;5000031;28;1259;-29
2022/03/13 04:36:33;;;;;;;;;;;;;;;25.83;11.37;101834.22;4998425;28;793;-28
2022/03/13 04:38:58;;;;;;;;;;;;;;;24.08;11.13;101828.47;4998719;28;992;-30
2022/03/13 04:41:24;;;;;;;;;;;;;;;24.02;12.59;101829.88;5007071;28;897;-33
2022/03/13 04:43:49;;;;;;;;;;;;;;;23.90;12.49;101822.91;4997719;28;792;-32
2022/03/13 04:46:16;;;;;;;;;;;;;;;23.57;12.73;101826.53;4998872;28;1910;-31
2022/03/13 04:48:41;;;;;;;;;;;;;;;23.68;12.55;101824.78;5013571;28;853;-32
2022/03/13 04:51:06;;;;;;;;;;;;;;;25.07;13.46;101831.38;5016724;28;841;-30
2022/03/13 04:53:32;;;;;;;;;;;;;;;25.92;13.56;101835.19;5009364;28;868;-31
2022/03/13 04:55:57;;;;;;;;;;;;;;;25.70;14.50;101847.16;5016086;28;1481;-32
2022/03/13 04:58:24;;;;;;;;;;;;;;;25.24;15.38;101829.78;5014934;28;781;-34
2022/03/13 05:00:49;;;;;;;;;;;;;;;25.28;15.50;101838.44;4999161;28;887;-33
2022/03/13 05:03:15;;;;;;;;;;;;;;;26.00;15.27;101834.44;5001703;28;858;-34
2022/03/13 05:05:40;;;;;;;;;;;;;;;25.69;15.56;101846.34;5002785;28;1898;-33
2022/03/13 05:08:06;;;;;;;;;;;;;;;25.47;16.05;101844.78;4996634;28;747;-34
2022/03/13 05:10:36;;;;;;;;;;;;;;;25.61;15.94;101844.31;4996499;28;807;-32
2022/03/13 05:13:05;;;;;;;;;;;;;;;25.95;15.57;101848.38;4996565;28;833;-33
2022/03/13 05:15:30;;;;;;;;;;;;;;;26.15;15.53;101846.44;4997841;28;790;-30
2022/03/13 05:17:55;;;;;;;;;;;;;;;26.36;15.60;101845.34;5009733;28;947;-29
2022/03/13 05:20:21;;;;;;;;;;;;;;;26.14;15.88;101847.41;5003281;28;782;-31
2022/03/13 05:22:46;;;;;;;;;;;;;;;25.82;16.36;101848.69;4997303;28;860;-32
2022/03/13 05:25:11;;;;;;;;;;;;;;;26.29;15.83;101841.53;4997406;28;1961;-33
2022/03/13 05:27:37;;;;;;;;;;;;;;;26.27;15.88;101848.94;4996978;28;849;-31
2022/03/13 05:30:02;;;;;;;;;;;;;;;26.29;16.09;101846.94;4999217;28;859;-31
2022/03/13 05:32:28;;;;;;;;;;;;;;;26.44;16.00;101844.59;5007512;28;889;-31
2022/03/13 05:34:53;;;;;;;;;;;;;;;26.50;15.87;101849.38;4997006;28;1027;-33
2022/03/13 05:37:19;;;;;;;;;;;;;;;26.66;15.84;101847.84;4997051;28;866;-29
2022/03/13 05:39:44;;;;;;;;;;;;;;;26.72;15.86;101849.94;4997419;28;798;-30
2022/03/13 05:42:09;;;;;;;;;;;;;;;26.78;15.77;101851.16;4997060;28;849;-32
2022/03/13 05:44:36;;;;;;;;;;;;;;;26.55;15.77;101854.31;5003099;28;841;-31
2022/03/13 05:47:02;;;;;;;;;;;;;;;26.83;15.54;101858.78;5005466;28;2053;-29
2022/03/13 05:49:27;;;;;;;;;;;;;;;26.80;15.59;101857.28;4997396;28;790;-30
2022/03/13 05:51:53;;;;;;;;;;;;;;;26.83;15.78;101861.50;4996826;28;1141;-31
2022/03/13 05:54:20;;;;;;;;;;;;;;;27.68;15.10;101860.19;4997444;28;845;-34
2022/03/13 05:56:46;;;;;;;;;;;;;;;26.03;16.40;101855.69;5002872;28;872;-32
2022/03/13 05:59:11;;;;;;;;;;;;;;;26.48;16.23;101864.00;4997306;28;826;-33
2022/03/13 06:01:38;;;;;;;;;;;;;;;26.39;16.26;101866.63;5005528;28;892;-32
2022/03/13 06:04:03;;;;;;;;;;;;;;;26.36;16.38;101866.09;5015787;28;833;-31
2022/03/13 06:06:32;;;;;;;;;;;;;;;26.50;16.04;101870.13;5016146;28;1951;-33
2022/03/13 06:08:57;;;;;;;;;;;;;;;26.58;15.76;101864.81;5009739;28;1155;-29
2022/03/13 06:11:22;;;;;;;;;;;;;;;26.92;15.60;101865.13;5001581;28;766;-33
2022/03/13 06:13:48;;;;;;;;;;;;;;;26.04;16.69;101866.34;4997420;28;813;-31
2022/03/13 06:16:14;;;;;;;;;;;;;;;26.11;16.84;101863.06;5008501;28;872;-32
2022/03/13 06:18:40;;;;;;;;;;;;;;;27.00;15.85;101876.00;5015796;28;770;-30
2022/03/13 06:21:05;;;;;;;;;;;;;;;27.14;15.50;101878.19;5012900;28;1467;-30
2022/03/13 06:23:31;;;;;;;;;;;;;;;27.42;15.20;101879.06;5005322;28;829;-33
2022/03/13 06:26:00;;;;;;;;;;;;;;;26.42;16.42;101876.28;5000473;28;1945;-29
2022/03/13 06:28:26;;;;;;;;;;;;;;;26.14;16.66;101866.28;5000673;28;822;-29
2022/03/13 06:30:51;;;;;;;;;;;;;;;26.63;16.00;101883.22;5003527;28;861;-33
2022/03/13 06:33:16;;;;;;;;;;;;;;;26.24;16.63;101874.31;5007305;28;1030;-30
2022/03/13 06:35:42;;;;;;;;;;;;;;;26.15;16.76;101872.53;5012003;28;750;-31
2022/03/13 06:38:07;;;;;;;;;;;;;;;26.25;16.71;101872.50;5000295;28;806;-34
2022/03/13 06:40:33;;;;;;;;;;;;;;;26.98;15.80;101873.47;5000468;28;738;-31
2022/03/13 06:42:58;;;;;;;;;;;;;;;26.60;15.99;101870.06;5000515;28;782;-32
2022/03/13 06:45:23;;;;;;;;;;;;;;;26.33;16.49;101879.84;5000602;28;1962;-33
2022/03/13 06:47:49;;;;;;;;;;;;;;;27.13;15.42;101875.63;5013549;28;841;-31
2022/03/13 06:50:16;;;;;;;;;;;;;;;26.59;16.09;101876.47;5000623;28;769;-30
2022/03/13 06:52:42;;;;;;;;;;;;;;;26.03;16.87;101866.47;5000325;28;865;-32
2022/03/13 06:55:07;;;;;;;;;;;;;;;26.06;16.72;101870.75;5000193;28;798;-31
2022/03/13 06:57:32;;;;;;;;;;;;;;;26.22;16.63;101873.66;5000394;28;850;-31
2022/03/13 06:59:58;;;;;;;;;;;;;;;26.24;16.51;101873.50;5007531;28;853;-30
2022/03/13 07:02:23;;;;;;;;;;;;;;;27.34;15.69;101875.28;5015998;28;770;-31
2022/03/13 07:04:49;;;;;;;;;;;;;;;27.00;15.74;101882.28;5000562;28;858;-30
2022/03/13 07:07:14;;;;;;;;;;;;;;;26.78;16.15;101881.72;4999809;28;1902;-29
2022/03/13 07:09:39;;;;;;;;;;;;;;;26.46;16.43;101876.81;4999694;28;857;-30
2022/03/13 07:12:10;;;;;;;;;;;;;;;26.18;16.82;101877.63;5002122;28;798;-34
2022/03/13 07:14:35;;;;;;;;;;;;;;;26.50;16.38;101876.38;5003795;28;813;-33
2022/03/13 07:17:00;;;;;;;;;;;;;;;27.11;15.83;101877.66;5009608;28;895;-30
2022/03/13 07:19:25;;;;;;;;;;;;;;;27.26;15.93;101877.94;4999554;28;750;-30
2022/03/13 07:21:51;;;;;;;;;;;;;;;26.94;16.05;101877.50;4999585;28;877;-30
2022/03/13 07:24:17;;;;;;;;;;;;;;;26.58;16.34;101881.00;4999509;28;782;-31
2022/03/13 07:26:42;;;;;;;;;;;;;;;26.63;16.44;101878.69;5009989;28;1909;-32
2022/03/13 07:29:08;;;;;;;;;;;;;;;26.65;16.25;101878.53;4999509;28;774;-30
2022/03/13 07:31:35;;;;;;;;;;;;;;;26.04;16.68;101870.91;5007453;28;994;-31
2022/03/13 07:34:00;;;;;;;;;;;;;;;25.92;16.86;101876.44;5010520;28;1220;-32
2022/03/13 07:36:26;;;;;;;;;;;;;;;27.04;15.93;101874.75;5018540;28;970;-32
2022/03/13 07:38:51;;;;;;;;;;;;;;;27.25;15.28;101877.09;5011192;28;805;-30
2022/03/13 07:41:16;;;;;;;;;;;;;;;28.32;14.61;101868.94;4999394;28;896;-31
2022/03/13 07:43:42;;;;;;;;;;;;;;;28.72;14.33;101870.09;4999442;28;814;-30
2022/03/13 07:46:07;;;;;;;;;;;;;;;28.93;13.78;101871.44;4998937;28;1971;-32
2022/03/13 07:48:34;;;;;;;;;;;;;;;28.05;14.49;101868.16;5016656;28;904;-30
2022/03/13 07:51:00;;;;;;;;;;;;;;;27.55;15.29;101878.66;5013362;28;825;-29
2022/03/13 07:53:27;;;;;;;;;;;;;;;27.56;15.08;101870.38;5000746;28;933;-32
2022/03/13 07:55:53;;;;;;;;;;;;;;;27.58;15.13;101870.22;4999405;28;846;-33
2022/03/13 07:58:19;;;;;;;;;;;;;;;27.54;14.97;101877.84;4999138;28;854;-32
2022/03/13 08:00:45;;;;;;;;;;;;;;;27.45;14.93;101876.91;5000914;28;825;-31
2022/03/13 08:03:12;;;;;;;;;;;;;;;27.35;15.41;101871.59;5008892;28;858;-31
2022/03/13 08:05:37;;;;;;;;;;;;;;;27.10;15.67;101866.00;5001946;28;1914;-31
2022/03/13 08:08:02;;;;;;;;;;;;;;;26.86;15.66;101867.44;4998818;28;901;-31
2022/03/13 08:10:28;;;;;;;;;;;;;;;26.82;15.84;101857.97;4999202;28;844;-32
2022/03/13 08:12:54;;;;;;;;;;;;;;;26.88;15.79;101864.59;4998609;28;850;-31
2022/03/13 08:15:20;;;;;;;;;;;;;;;26.89;15.82;101864.44;4999221;28;818;-31
2022/03/13 08:17:45;;;;;;;;;;;;;;;26.90;16.01;101860.75;5006201;28;838;-30
2022/03/13 08:20:11;;;;;;;;;;;;;;;26.87;15.76;101858.38;4998293;28;928;-31
2022/03/13 08:22:37;;;;;;;;;;;;;;;26.85;16.19;101873.84;4998452;28;881;-30
2022/03/13 08:25:02;;;;;;;;;;;;;;;26.16;16.64;101855.34;4998582;28;1894;-35
2022/03/13 08:27:27;;;;;;;;;;;;;;;25.80;16.89;101867.72;4998554;28;841;-33
2022/03/13 08:29:53;;;;;;;;;;;;;;;25.65;16.92;101866.47;5004458;28;880;-33
2022/03/13 08:32:18;;;;;;;;;;;;;;;26.32;16.49;101862.81;5005439;28;1130;-32
2022/03/13 08:34:45;;;;;;;;;;;;;;;27.19;15.88;101866.06;4998035;28;1108;-31
2022/03/13 08:37:10;;;;;;;;;;;;;;;25.65;17.10;101866.47;5004924;28;1242;-32
2022/03/13 08:39:35;;;;;;;;;;;;;;;24.52;18.38;101860.50;5016933;28;802;-30
2022/03/13 08:42:01;;;;;;;;;;;;;;;25.21;17.92;101861.56;5015776;28;857;-32
2022/03/13 08:44:26;;;;;;;;;;;;;;;25.13;17.81;101863.13;4998530;28;904;-31
2022/03/13 08:46:52;;;;;;;;;;;;;;;25.19;17.82;101859.84;4998148;28;1970;-30
2022/03/13 08:49:17;;;;;;;;;;;;;;;26.32;17.07;101867.34;4998221;28;789;-30
2022/03/13 08:51:42;;;;;;;;;;;;;;;26.96;16.25;101870.06;4997563;28;948;-32
2022/03/13 08:54:08;;;;;;;;;;;;;;;26.99;16.04;101874.31;4997151;28;790;-33
2022/03/13 08:56:33;;;;;;;;;;;;;;;27.20;15.92;101873.16;5014186;28;832;-32
2022/03/13 08:58:58;;;;;;;;;;;;;;;27.25;15.77;101870.84;5017058;28;739;-33
2022/03/13 09:01:25;;;;;;;;;;;;;;;27.28;16.24;101875.09;5007702;28;869;-30
2022/03/13 09:03:50;;;;;;;;;;;;;;;27.40;15.91;101876.53;4997218;28;958;-32
2022/03/13 09:06:16;;;;;;;;;;;;;;;27.88;15.35;101870.78;5012768;28;1898;-34
2022/03/13 09:08:41;;;;;;;;;;;;;;;27.81;15.92;101873.28;5004081;28;849;-31
2022/03/13 09:11:07;;;;;;;;;;;;;;;28.29;15.42;101869.28;4997187;28;865;-32
2022/03/13 09:13:33;;;;;;;;;;;;;;;28.24;15.44;101870.59;4998010;28;841;-34
2022/03/13 09:15:58;;;;;;;;;;;;;;;28.24;15.42;101867.06;4998878;28;837;-30
2022/03/13 09:18:23;;;;;;;;;;;;;;;28.26;15.88;101866.91;5016155;28;745;-31
2022/03/13 09:20:49;;;;;;;;;;;;;;;28.23;15.75;101868.91;5014676;28;834;-33
2022/03/13 09:23:14;;;;;;;;;;;;;;;28.59;15.59;101873.25;4997403;28;817;-33
2022/03/13 09:25:39;;;;;;;;;;;;;;;28.73;15.38;101877.19;4997652;28;1898;-32
2022/03/13 09:28:04;;;;;;;;;;;;;;;28.87;15.51;101869.44;5013504;28;1250;-35
2022/03/13 09:30:30;;;;;;;;;;;;;;;28.84;15.65;101869.75;5012247;28;1582;-33
2022/03/13 09:32:55;;;;;;;;;;;;;;;29.05;15.09;101865.72;5006043;28;782;-34
2022/03/13 09:35:20;;;;;;;;;;;;;;;29.20;15.17;101869.47;4997210;28;1006;-34
2022/03/13 09:37:46;;;;;;;;;;;;;;;29.02;15.37;101872.34;4997194;28;829;-34
2022/03/13 09:40:12;;;;;;;;;;;;;;;29.06;15.45;101862.03;4997065;28;997;-34
2022/03/13 09:42:37;;;;;;;;;;;;;;;28.85;15.59;101864.19;5008861;28;1091;-33
2022/03/13 09:45:03;;;;;;;;;;;;;;;29.10;15.42;101860.66;5009382;28;1902;-32
2022/03/13 09:47:28;;;;;;;;;;;;;;;29.16;15.80;101870.81;5019032;28;850;-34
2022/03/13 09:49:54;;;;;;;;;;;;;;;29.24;15.43;101861.84;4997455;28;1165;-30
2022/03/13 09:52:19;;;;;;;;;;;;;;;29.05;15.65;101863.88;4996696;28;829;-31
2022/03/13 09:54:44;;;;;;;;;;;;;;;29.29;15.50;101864.03;4996842;28;799;-31
2022/03/13 09:57:10;;;;;;;;;;;;;;;29.54;15.43;101858.56;4997616;28;841;-31
2022/03/13 09:59:35;;;;;;;;;;;;;;;29.60;15.67;101859.75;5007186;28;881;-34
2022/03/13 10:02:06;;;;;;;;;;;;;;;29.61;15.51;101853.34;5009497;28;923;-31
2022/03/13 10:04:32;;;;;;;;;;;;;;;29.68;15.48;101855.19;5018347;28;1325;-33
2022/03/13 10:07:00;;;;;;;;;;;;;;;29.61;15.83;101854.19;5019891;28;1973;-34
2022/03/13 10:09:26;;;;;;;;;;;;;;;29.99;15.31;101853.56;5019473;28;1177;-36
2022/03/13 10:12:02;;;;;;;;;;;;;;;30.65;14.53;101859.66;5011884;28;821;-36
2022/03/13 10:14:27;;;;;;;;;;;;;;;30.24;15.00;101852.63;5004292;28;1081;-32
2022/03/13 10:16:52;;;;;;;;;;;;;;;29.56;15.61;101851.13;5012000;28;889;-32
2022/03/13 10:19:18;;;;;;;;;;;;;;;29.55;15.67;101844.00;5000883;28;849;-34
2022/03/13 10:22:18;;;;;;;;;;;;;;;29.31;15.99;101846.56;5000984;28;853;-34
2022/03/13 10:24:45;;;;;;;;;;;;;;;29.45;15.91;101845.03;4991679;28;1384;-35
2022/03/13 10:27:14;;;;;;;;;;;;;;;29.75;15.74;101844.47;5014760;28;1918;-34
2022/03/13 10:29:40;;;;;;;;;;;;;;;29.72;15.77;101849.41;5019218;28;861;-32
2022/03/13 10:32:06;;;;;;;;;;;;;;;30.01;15.59;101851.50;5016875;28;1046;-33
2022/03/13 10:34:34;;;;;;;;;;;;;;;30.00;15.63;101848.97;5000072;28;1145;-33
2022/03/13 10:37:01;;;;;;;;;;;;;;;29.70;15.83;101847.72;5011587;28;845;-30
2022/03/13 10:39:26;;;;;;;;;;;;;;;30.25;15.48;101843.44;5000510;28;845;-36
2022/03/13 10:41:53;;;;;;;;;;;;;;;31.00;14.50;101843.81;4999945;28;874;-33
2022/03/13 10:44:20;;;;;;;;;;;;;;;30.45;15.10;101845.72;5013076;28;823;-35
2022/03/13 10:46:48;;;;;;;;;;;;;;;29.82;15.86;101847.34;5007237;28;1906;-32
2022/03/13 10:49:14;;;;;;;;;;;;;;;29.94;15.70;101842.38;5011799;28;786;-31
2022/03/13 10:51:45;;;;;;;;;;;;;;;29.67;16.18;101839.09;5000614;28;933;-34
2022/03/13 10:54:24;;;;;;;;;;;;;;;29.78;15.93;101836.00;5012767;28;874;-32
2022/03/13 10:57:03;;;;;;;;;;;;;;;30.00;15.93;101846.25;5000121;28;885;-34
2022/03/13 10:59:29;;;;;;;;;;;;;;;30.67;15.15;101830.47;5000182;28;842;-32
2022/03/13 11:02:10;;;;;;;;;;;;;;;31.21;14.45;101838.69;5008405;28;876;-35
2022/03/13 11:04:35;;;;;;;;;;;;;;;30.30;15.32;101830.19;5001321;28;877;-34
2022/03/13 11:07:01;;;;;;;;;;;;;;;30.30;15.45;101816.63;4999572;28;1949;-31
2022/03/13 11:09:26;;;;;;;;;;;;;;;30.13;15.67;101829.41;4999639;28;813;-32
2022/03/13 11:11:51;;;;;;;;;;;;;;;30.16;15.67;101829.06;4999777;28;809;-30
2022/03/13 11:14:18;;;;;;;;;;;;;;;30.06;15.81;101824.69;5004109;28;813;-33
2022/03/13 11:16:43;;;;;;;;;;;;;;;30.14;15.68;101822.97;5012554;28;912;-37
2022/03/13 11:19:09;;;;;;;;;;;;;;;30.22;15.78;101828.38;5018794;28;860;-37
2022/03/13 11:21:34;;;;;;;;;;;;;;;31.10;14.68;101835.38;5018289;28;841;-33
2022/03/13 11:24:03;;;;;;;;;;;;;;;30.77;15.07;101841.06;5018053;28;913;-35
2022/03/13 11:26:31;;;;;;;;;;;;;;;30.07;15.93;101830.97;5017880;28;1965;-34
2022/03/13 11:28:57;;;;;;;;;;;;;;;29.67;15.81;101829.09;5014508;28;743;-32
2022/03/13 11:31:27;;;;;;;;;;;;;;;30.37;14.85;101831.16;5009446;28;834;-33
2022/03/13 11:34:07;;;;;;;;;;;;;;;30.70;14.11;101829.25;4999440;28;1054;-32
2022/03/13 11:36:32;;;;;;;;;;;;;;;30.19;14.27;101836.84;4999415;28;775;-35
2022/03/13 11:39:04;;;;;;;;;;;;;;;30.85;13.91;101837.47;4999440;28;850;-37
2022/03/13 11:41:37;;;;;;;;;;;;;;;30.64;13.70;101828.09;5006458;28;876;-31
2022/03/13 11:44:05;;;;;;;;;;;;;;;29.87;14.28;101831.38;4999018;28;1074;-35
2022/03/13 11:46:43;;;;;;;;;;;;;;;29.28;14.42;101830.66;5006417;28;1909;-35
2022/03/13 11:49:27;;;;;;;;;;;;;;;29.52;14.56;101836.22;4999353;28;884;-37
2022/03/13 11:52:13;;;;;;;;;;;;;;;29.98;13.86;101838.28;4999271;28;866;-31
2022/03/13 11:54:48;;;;;;;;;;;;;;;29.32;14.47;101837.44;5016131;28;838;-34
2022/03/13 11:57:14;;;;;;;;;;;;;;;29.11;14.44;101835.28;5017640;28;804;-34
2022/03/13 11:59:39;;;;;;;;;;;;;;;29.91;13.85;101840.03;5018281;28;830;-37
2022/03/13 12:02:07;;;;;;;;;;;;;;;29.82;13.89;101848.19;5003683;28;888;-36
2022/03/13 12:04:32;;;;;;;;;;;;;;;28.98;14.32;101845.78;4997546;28;1479;-33
2022/03/13 12:06:58;;;;;;;;;;;;;;;29.93;13.79;101857.81;5005196;28;1967;-33
2022/03/13 12:09:42;;;;;;;;;;;;;;;29.81;13.70;101841.06;4998905;28;1122;-34
2022/03/13 12:12:12;;;;;;;;;;;;;;;29.81;13.72;101853.78;5012002;28;798;-35
2022/03/13 12:14:57;;;;;;;;;;;;;;;29.52;13.96;101847.91;5017660;28;848;-33
2022/03/13 12:17:25;;;;;;;;;;;;;;;29.47;14.14;101853.00;5012978;28;831;-33
2022/03/13 12:19:51;;;;;;;;;;;;;;;29.69;13.62;101845.19;5013475;28;797;-35
2022/03/13 12:22:16;;;;;;;;;;;;;;;29.60;13.86;101843.50;5016985;28;825;-33
2022/03/13 12:24:51;;;;;;;;;;;;;;;29.34;13.97;101848.13;5017415;28;815;-34
2022/03/13 12:27:16;;;;;;;;;;;;;;;29.24;13.96;101848.28;5016902;28;1902;-33
2022/03/13 12:29:42;;;;;;;;;;;;;;;28.84;14.57;101848.09;5017471;28;780;-33
2022/03/13 12:32:11;;;;;;;;;;;;;;;28.90;14.16;101847.41;5011344;28;1002;-33
2022/03/13 12:34:40;;;;;;;;;;;;;;;28.91;14.26;101845.56;4997876;28;1142;-34
2022/03/13 12:37:09;;;;;;;;;;;;;;;29.11;13.83;101847.97;4998619;28;939;-31
2022/03/13 12:39:34;;;;;;;;;;;;;;;28.94;14.16;101856.91;4998456;28;925;-31
2022/03/13 12:42:00;;;;;;;;;;;;;;;29.20;14.07;101860.47;4998355;28;1005;-36
2022/03/13 12:44:27;;;;;;;;;;;;;;;29.25;14.12;101865.38;5004666;28;846;-36
2022/03/13 12:46:53;;;;;;;;;;;;;;;28.94;14.48;101859.63;5005239;28;1903;-37
2022/03/13 12:49:27;;;;;;;;;;;;;;;29.37;13.79;101864.03;4997702;28;905;-32
2022/03/13 12:51:52;;;;;;;;;;;;;;;29.14;13.92;101864.72;4997809;28;1421;-38